Time;durP1;ratioP1;P1;durP2;ratioP2;P2;SDS_P1;SDS_P2;PMS_P1;PMS_P2;Temp;Humidity;BMP_temperature;BMP_pressure;BME280_temperature;BME280_humidity;BME280_pressure;Samples;Min_cycle;Max_cycle;Signal;HPM_P1;HPM_P2
2023/06/29 00:00:31;;;;;;;2.20;1.70;;;;;;;15.64;71.67;98711.45;109097;1253;58817;-75
2023/06/29 00:02:58;;;;;;;4.30;2.00;;;;;;;15.57;72.27;98708.31;108133;1256;59120;-80
2023/06/29 00:05:26;;;;;;;2.90;1.90;;;;;;;15.50;73.01;98704.70;106424;1254;72901;-78
2023/06/29 00:07:58;;;;;;;1.80;1.50;;;;;;;15.50;73.88;98699.30;106083;1256;68994;-77
2023/06/29 00:10:25;;;;;;;2.60;1.60;;;;;;;15.57;74.50;98697.73;106215;1254;72673;-82
2023/06/29 00:12:54;;;;;;;3.50;1.60;;;;;;;15.55;75.44;98698.45;106150;1254;62371;-81
2023/06/29 00:15:21;;;;;;;3.60;1.90;;;;;;;15.46;76.21;98699.52;106153;1259;60441;-77
2023/06/29 00:17:49;;;;;;;2.80;1.70;;;;;;;15.35;77.15;98694.54;106177;1254;72164;-80
2023/06/29 00:20:17;;;;;;;2.10;1.70;;;;;;;15.32;77.99;98690.66;106202;1256;68906;-79
2023/06/29 00:22:47;;;;;;;3.70;1.80;;;;;;;15.28;78.67;98693.31;105968;1256;71295;-78
2023/06/29 00:25:16;;;;;;;3.50;1.90;;;;;;;15.16;79.47;98690.20;106100;1254;60521;-79
2023/06/29 00:27:44;;;;;;;3.40;1.90;;;;;;;15.05;80.46;98694.31;106562;1256;62427;-80
2023/06/29 00:30:13;;;;;;;2.30;1.60;;;;;;;15.01;80.80;98691.98;108349;1253;72121;-78
2023/06/29 00:32:40;;;;;;;4.10;1.80;;;;;;;15.00;81.23;98689.56;108329;1256;68613;-80
2023/06/29 00:35:08;;;;;;;2.00;1.60;;;;;;;14.90;81.35;98689.41;105912;1255;71448;-78
2023/06/29 00:37:35;;;;;;;2.90;1.90;;;;;;;14.81;82.01;98683.92;106174;1256;60642;-78
2023/06/29 00:40:05;;;;;;;2.60;1.70;;;;;;;14.79;82.58;98682.48;106241;1254;60951;-77
2023/06/29 00:42:32;;;;;;;2.40;1.70;;;;;;;14.78;82.87;98683.99;106615;1251;73915;-78
2023/06/29 00:45:00;;;;;;;3.60;1.70;;;;;;;14.69;83.24;98681.98;106984;1254;68994;-77
2023/06/29 00:47:27;;;;;;;4.10;2.30;;;;;;;14.63;84.40;98675.41;107537;1253;71352;-78
2023/06/29 00:49:56;;;;;;;1.80;1.70;;;;;;;14.66;84.61;98678.02;106742;1253;61742;-79
2023/06/29 00:52:23;;;;;;;2.50;2.00;;;;;;;14.59;85.42;98674.49;106647;1259;60455;-76
2023/06/29 00:54:56;;;;;;;2.70;2.00;;;;;;;14.48;86.54;98676.46;106073;1254;73088;-76
2023/06/29 00:57:29;;;;;;;4.80;2.30;;;;;;;14.45;86.88;98672.09;106455;1259;71010;-74
2023/06/29 01:00:00;;;;;;;3.80;1.80;;;;;;;14.40;87.79;98671.69;107971;1254;71267;-74
2023/06/29 01:02:31;;;;;;;2.20;1.80;;;;;;;14.33;88.92;98670.71;108060;1254;60524;-72
2023/06/29 01:05:04;;;;;;;2.90;2.00;;;;;;;14.33;89.86;98665.90;105814;1254;61020;-75
2023/06/29 01:07:39;;;;;;;3.00;1.80;;;;;;;14.29;90.17;98667.98;105936;1254;74732;-75
2023/06/29 01:10:08;;;;;;;4.50;2.00;;;;;;;14.26;90.34;98661.55;106237;1254;67956;-78
2023/06/29 01:12:36;;;;;;;3.50;2.00;;;;;;;14.22;91.09;98665.95;106030;1254;71345;-78
2023/06/29 01:15:04;;;;;;;3.50;2.10;;;;;;;14.13;92.14;98661.54;105690;1259;61919;-77
2023/06/29 01:17:31;;;;;;;2.10;1.80;;;;;;;14.09;92.73;98660.75;105921;1254;60594;-75
2023/06/29 01:19:59;;;;;;;3.80;1.90;;;;;;;14.06;93.40;98657.62;105989;1254;74325;-75
2023/06/29 01:22:35;;;;;;;3.90;2.10;;;;;;;14.01;94.32;98655.23;105976;1256;69378;-76
2023/06/29 01:25:04;;;;;;;4.40;2.10;;;;;;;13.97;94.89;98649.39;105955;1254;70166;-82
2023/06/29 01:27:33;;;;;;;3.40;2.30;;;;;;;13.93;96.00;98654.54;107392;1253;62601;-80
2023/06/29 01:30:01;;;;;;;4.20;2.00;;;;;;;13.88;96.52;98650.40;109617;1253;59033;-81
2023/06/29 01:32:33;;;;;;;2.60;1.90;;;;;;;13.83;97.38;98647.55;108914;1253;72701;-75
2023/06/29 01:35:02;;;;;;;2.40;2.10;;;;;;;13.79;98.02;98647.50;108173;1254;70383;-76
2023/06/29 01:37:36;;;;;;;3.10;1.90;;;;;;;13.76;98.55;98647.17;105890;1257;72660;-79
2023/06/29 01:40:08;;;;;;;3.10;1.90;;;;;;;13.74;99.63;98644.29;106002;1256;60605;-77
2023/06/29 01:42:36;;;;;;;2.20;1.60;;;;;;;13.70;99.65;98649.07;105961;1253;60761;-77
2023/06/29 01:45:08;;;;;;;1.80;1.60;;;;;;;13.67;100.00;98652.59;105832;1254;72984;-78
2023/06/29 01:47:35;;;;;;;3.70;1.90;;;;;;;13.64;100.00;98651.90;106096;1256;68840;-76
2023/06/29 01:50:03;;;;;;;2.00;1.80;;;;;;;13.62;100.00;98653.14;106785;1254;72028;-74
2023/06/29 01:52:30;;;;;;;2.80;1.70;;;;;;;13.61;100.00;98652.16;108535;1254;60406;-77
2023/06/29 01:54:57;;;;;;;4.50;2.30;;;;;;;13.62;100.00;98652.44;108137;1254;60153;-75
2023/06/29 01:57:28;;;;;;;1.80;1.70;;;;;;;13.65;100.00;98650.05;108195;1253;73886;-74
2023/06/29 01:59:56;;;;;;;2.60;2.10;;;;;;;13.66;100.00;98649.89;108959;1253;69410;-74
2023/06/29 02:02:23;;;;;;;2.20;1.70;;;;;;;13.69;100.00;98649.81;109243;1254;71212;-74
2023/06/29 02:04:51;;;;;;;3.00;2.10;;;;;;;13.72;100.00;98651.11;107493;1253;60605;-75
2023/06/29 02:07:18;;;;;;;2.30;2.10;;;;;;;13.75;100.00;98648.63;107440;1258;60414;-74
2023/06/29 02:09:49;;;;;;;2.00;1.50;;;;;;;13.75;100.00;98644.70;107334;1254;73106;-72
2023/06/29 02:12:17;;;;;;;2.10;1.70;;;;;;;13.76;100.00;98644.20;107143;1258;70077;-74
2023/06/29 02:14:44;;;;;;;3.60;2.00;;;;;;;13.78;100.00;98640.89;107226;1254;71837;-72
2023/06/29 02:17:12;;;;;;;3.20;1.60;;;;;;;13.81;100.00;98644.03;107357;1252;60443;-72
2023/06/29 02:19:39;;;;;;;1.80;1.50;;;;;;;13.82;100.00;98644.09;107090;1254;59218;-75
2023/06/29 02:22:07;;;;;;;2.40;1.80;;;;;;;13.83;100.00;98642.91;108326;1254;73727;-76
2023/06/29 02:24:34;;;;;;;1.60;1.30;;;;;;;13.84;100.00;98638.84;107581;1254;70933;-73
2023/06/29 02:27:02;;;;;;;3.10;1.60;;;;;;;13.88;100.00;98639.30;107144;1256;73770;-74
2023/06/29 02:29:29;;;;;;;1.30;1.20;;;;;;;13.89;100.00;98639.38;109530;1253;60381;-74
2023/06/29 02:31:56;;;;;;;1.60;1.40;;;;;;;13.90;100.00;98637.81;109564;1253;58832;-75
2023/06/29 02:34:24;;;;;;;2.30;1.80;;;;;;;13.92;100.00;98639.44;107486;1259;72626;-75
2023/06/29 02:36:53;;;;;;;1.80;1.70;;;;;;;13.95;100.00;98633.84;107348;1251;68900;-72
2023/06/29 02:39:21;;;;;;;2.20;1.70;;;;;;;13.98;100.00;98633.44;107766;1253;72712;-75
2023/06/29 02:41:48;;;;;;;2.30;2.00;;;;;;;13.96;100.00;98634.73;108211;1251;60485;-76
2023/06/29 02:44:16;;;;;;;2.40;1.90;;;;;;;13.95;100.00;98629.39;108937;1258;58731;-77
2023/06/29 02:46:45;;;;;;;2.40;2.10;;;;;;;13.95;100.00;98626.20;108662;1252;74007;-78
2023/06/29 02:49:15;;;;;;;2.20;2.00;;;;;;;13.96;100.00;98622.89;109413;1254;68811;-77
2023/06/29 02:51:50;;;;;;;3.60;1.90;;;;;;;13.98;100.00;98624.52;109462;1254;71393;-74
2023/06/29 02:54:17;;;;;;;1.90;1.60;;;;;;;14.01;100.00;98626.64;108917;1254;60400;-74
2023/06/29 02:56:45;;;;;;;3.00;2.00;;;;;;;14.03;100.00;98623.38;109106;1254;60521;-73
2023/06/29 02:59:12;;;;;;;2.90;1.80;;;;;;;14.05;100.00;98624.23;109216;1251;72568;-73
2023/06/29 03:01:40;;;;;;;3.80;2.30;;;;;;;14.08;100.00;98622.06;109514;1251;72593;-73
2023/06/29 03:04:07;;;;;;;3.30;2.20;;;;;;;14.13;100.00;98623.01;109416;1253;71320;-74
2023/06/29 03:06:35;;;;;;;2.80;2.00;;;;;;;14.18;100.00;98623.17;108718;1253;60592;-73
2023/06/29 03:09:03;;;;;;;3.40;2.20;;;;;;;14.21;100.00;98619.65;108816;1253;60196;-72
2023/06/29 03:11:31;;;;;;;2.30;2.00;;;;;;;14.23;100.00;98618.48;109192;1254;72756;-74
2023/06/29 03:13:58;;;;;;;3.40;2.10;;;;;;;14.25;100.00;98620.77;109387;1254;68077;-75
2023/06/29 03:16:26;;;;;;;2.60;2.30;;;;;;;14.27;100.00;98620.83;109323;1254;71419;-74
2023/06/29 03:18:54;;;;;;;2.70;2.50;;;;;;;14.28;100.00;98616.51;109411;1253;60414;-74
2023/06/29 03:21:21;;;;;;;3.10;2.20;;;;;;;14.35;100.00;98623.67;108987;1254;58825;-73
2023/06/29 03:23:49;;;;;;;2.40;2.00;;;;;;;14.39;100.00;98621.91;109070;1254;75086;-73
2023/06/29 03:26:17;;;;;;;2.10;1.90;;;;;;;14.43;100.00;98623.15;109505;1253;69077;-73
2023/06/29 03:28:44;;;;;;;4.80;2.40;;;;;;;14.47;100.00;98624.19;107902;1254;71232;-72
2023/06/29 03:31:11;;;;;;;3.20;2.50;;;;;;;14.52;100.00;98622.31;108305;1253;60475;-73
2023/06/29 03:33:39;;;;;;;2.40;2.10;;;;;;;14.54;100.00;98619.88;109385;1254;58757;-74
2023/06/29 03:36:11;;;;;;;4.70;2.40;;;;;;;14.57;100.00;98626.73;107568;1253;72680;-73
2023/06/29 03:38:42;;;;;;;2.80;2.60;;;;;;;14.56;100.00;98624.46;109317;1253;69058;-73
2023/06/29 03:41:09;;;;;;;2.90;2.70;;;;;;;14.57;100.00;98624.40;109171;1253;70421;-73
2023/06/29 03:43:37;;;;;;;3.70;3.00;;;;;;;14.59;100.00;98622.53;107444;1257;60539;-73
2023/06/29 03:46:04;;;;;;;3.60;3.00;;;;;;;14.60;100.00;98626.52;106053;1252;60537;-75
2023/06/29 03:48:31;;;;;;;4.20;3.00;;;;;;;14.57;100.00;98620.09;106009;1251;73925;-73
2023/06/29 03:50:59;;;;;;;4.40;3.30;;;;;;;14.57;100.00;98619.39;105887;1254;72554;-75
2023/06/29 03:53:27;;;;;;;5.10;3.40;;;;;;;14.58;100.00;98617.48;105987;1253;73651;-74
2023/06/29 03:55:54;;;;;;;3.70;3.40;;;;;;;14.60;100.00;98613.27;106024;1258;60495;-75
2023/06/29 03:58:21;;;;;;;4.10;3.70;;;;;;;14.63;100.00;98611.02;106476;1258;60927;-73
2023/06/29 04:00:50;;;;;;;4.10;3.70;;;;;;;14.67;100.00;98616.36;108080;1253;73169;-74
2023/06/29 04:03:19;;;;;;;5.00;3.50;;;;;;;14.71;100.00;98619.90;108270;1256;69328;-75
2023/06/29 04:05:47;;;;;;;5.30;4.30;;;;;;;14.78;100.00;98619.58;105967;1257;71487;-74
2023/06/29 04:08:14;;;;;;;4.20;3.50;;;;;;;14.85;100.00;98621.59;105808;1256;60520;-74
2023/06/29 04:10:41;;;;;;;5.10;4.00;;;;;;;14.91;100.00;98621.59;105963;1256;60422;-74
2023/06/29 04:13:09;;;;;;;4.30;3.90;;;;;;;14.98;100.00;98619.59;105955;1256;73057;-76
2023/06/29 04:15:36;;;;;;;4.30;3.90;;;;;;;15.00;100.00;98623.80;105957;1257;69954;-74
2023/06/29 04:18:04;;;;;;;5.80;4.10;;;;;;;15.02;100.00;98619.99;105974;1256;72835;-76
2023/06/29 04:20:32;;;;;;;5.90;4.20;;;;;;;15.01;100.00;98619.47;105989;1256;61755;-76
2023/06/29 04:23:00;;;;;;;7.30;4.40;;;;;;;15.01;100.00;98618.86;106034;1256;60594;-77
2023/06/29 04:25:27;;;;;;;4.70;4.00;;;;;;;15.05;100.00;98620.13;106006;1254;72567;-76
2023/06/29 04:27:56;;;;;;;4.70;3.70;;;;;;;15.07;100.00;98625.12;106378;1257;70269;-75
2023/06/29 04:30:23;;;;;;;4.30;3.90;;;;;;;15.09;100.00;98624.27;107224;1254;73439;-77
2023/06/29 04:32:51;;;;;;;5.10;4.50;;;;;;;15.09;100.00;98622.75;109459;1252;60605;-74
2023/06/29 04:35:18;;;;;;;4.20;3.80;;;;;;;15.08;100.00;98622.34;105909;1257;60663;-75
2023/06/29 04:37:46;;;;;;;5.80;3.70;;;;;;;15.08;100.00;98622.25;105922;1257;72883;-74
2023/06/29 04:40:14;;;;;;;4.60;4.00;;;;;;;15.12;100.00;98624.89;105908;1264;71702;-76
2023/06/29 04:42:46;;;;;;;4.70;4.30;;;;;;;15.12;100.00;98622.00;106022;1254;71267;-75
2023/06/29 04:45:19;;;;;;;5.20;4.50;;;;;;;15.13;100.00;98626.68;105980;1257;60493;-78
2023/06/29 04:47:49;;;;;;;5.10;4.70;;;;;;;15.14;100.00;98626.80;105882;1252;61184;-76
2023/06/29 04:50:24;;;;;;;5.40;4.10;;;;;;;15.13;100.00;98626.04;106022;1259;76131;-77
2023/06/29 04:52:58;;;;;;;5.50;4.20;;;;;;;15.12;100.00;98626.22;105695;1262;69228;-80
2023/06/29 04:55:26;;;;;;;5.60;5.00;;;;;;;15.10;100.00;98624.09;105874;1260;72699;-77
2023/06/29 04:57:56;;;;;;;5.60;5.10;;;;;;;15.11;100.00;98621.86;106266;1254;60774;-76
2023/06/29 05:00:24;;;;;;;5.50;4.90;;;;;;;15.12;100.00;98625.38;107480;1257;60351;-74
2023/06/29 05:02:52;;;;;;;5.60;4.90;;;;;;;15.16;100.00;98619.89;108901;1252;74933;-76
2023/06/29 05:05:22;;;;;;;6.00;4.60;;;;;;;15.23;100.00;98623.08;107282;1259;68937;-76
2023/06/29 05:07:50;;;;;;;10.60;5.00;;;;;;;15.29;100.00;98623.52;106195;1254;72701;-73
2023/06/29 05:10:18;;;;;;;4.70;4.30;;;;;;;15.37;100.00;98626.05;105970;1255;61822;-75
2023/06/29 05:12:46;;;;;;;5.50;5.00;;;;;;;15.43;100.00;98625.36;105660;1253;60530;-74
2023/06/29 05:15:15;;;;;;;7.00;5.50;;;;;;;15.48;100.00;98627.13;105889;1255;76022;-75
2023/06/29 05:17:43;;;;;;;5.60;5.00;;;;;;;15.53;100.00;98626.16;105953;1255;69969;-77
2023/06/29 05:20:13;;;;;;;5.60;4.50;;;;;;;15.60;100.00;98628.80;106021;1257;70468;-76
2023/06/29 05:22:40;;;;;;;5.10;4.60;;;;;;;15.61;100.00;98630.91;106191;1256;61680;-77
2023/06/29 05:25:08;;;;;;;5.90;4.80;;;;;;;15.61;99.86;98628.39;106083;1254;60570;-77
2023/06/29 05:27:36;;;;;;;5.80;5.30;;;;;;;15.63;99.94;98627.35;106263;1254;72652;-78
2023/06/29 05:30:04;;;;;;;7.00;5.50;;;;;;;15.65;99.40;98623.41;108508;1253;69031;-77
2023/06/29 05:32:33;;;;;;;4.90;4.50;;;;;;;15.69;99.64;98623.25;108961;1253;71930;-77
2023/06/29 05:35:01;;;;;;;6.90;5.60;;;;;;;15.79;99.51;98620.72;107425;1253;204150;-79
2023/06/29 05:39:35;;;;;;;9.00;5.60;;;;;;;15.96;98.68;98627.70;102712;1295;599942;-76
2023/06/29 05:42:03;;;;;;;7.60;5.00;;;;;;;16.01;98.30;98624.54;105307;1267;61617;-78
2023/06/29 05:44:30;;;;;;;7.40;6.00;;;;;;;16.06;97.91;98625.30;105894;1263;59433;-72
2023/06/29 05:46:58;;;;;;;6.60;5.80;;;;;;;16.11;97.70;98626.84;106365;1265;72954;-75
2023/06/29 05:49:25;;;;;;;7.70;6.40;;;;;;;16.18;97.42;98628.39;106034;1260;69034;-74
2023/06/29 05:51:53;;;;;;;5.80;5.20;;;;;;;16.24;96.93;98625.02;105693;1260;72030;-75
2023/06/29 05:54:21;;;;;;;7.60;5.20;;;;;;;16.29;97.05;98628.70;105856;1263;200792;-74
2023/06/29 05:56:48;;;;;;;9.20;5.20;;;;;;;16.33;96.88;98628.05;105622;1260;60134;-74
2023/06/29 05:59:16;;;;;;;6.40;5.10;;;;;;;16.37;96.56;98624.42;107308;1265;72394;-74
2023/06/29 06:01:44;;;;;;;6.30;5.70;;;;;;;16.37;96.39;98626.35;108150;1259;69039;-74
2023/06/29 06:04:12;;;;;;;7.80;5.30;;;;;;;16.39;96.43;98624.35;106900;1262;71219;-76
2023/06/29 06:06:39;;;;;;;5.80;5.30;;;;;;;16.43;96.52;98628.27;105728;1258;61637;-74
2023/06/29 06:09:07;;;;;;;6.00;5.20;;;;;;;16.46;96.57;98627.36;105708;1260;59545;-76
2023/06/29 06:11:35;;;;;;;6.20;5.10;;;;;;;16.50;96.22;98632.66;105772;1263;71453;-75
2023/06/29 06:14:02;;;;;;;5.90;5.40;;;;;;;16.52;95.99;98632.81;105789;1259;70235;-78
2023/06/29 06:16:30;;;;;;;6.00;4.90;;;;;;;16.55;96.03;98632.70;105756;1259;72000;-77
2023/06/29 06:18:57;;;;;;;5.90;5.10;;;;;;;16.60;96.16;98631.11;105641;1259;61695;-77
2023/06/29 06:21:25;;;;;;;5.30;4.80;;;;;;;16.69;96.11;98632.34;105506;1262;59544;-77
2023/06/29 06:23:53;;;;;;;8.10;5.70;;;;;;;16.78;95.86;98628.44;105648;1259;73044;-78
2023/06/29 06:26:20;;;;;;;7.90;4.90;;;;;;;16.81;96.08;98625.03;105615;1264;69258;-77
2023/06/29 06:28:47;;;;;;;6.10;4.70;;;;;;;16.79;96.23;98622.06;106430;1257;71554;-78
2023/06/29 06:31:15;;;;;;;5.40;4.50;;;;;;;16.74;96.78;98623.35;107796;1254;60369;-76
2023/06/29 06:34:00;;;;;;;7.80;4.70;;;;;;;16.64;97.36;98627.02;107668;1254;59167;-75
2023/06/29 06:36:30;;;;;;;7.50;4.80;;;;;;;16.53;98.19;98626.56;105772;1264;73395;-76
2023/06/29 06:38:59;;;;;;;5.20;3.90;;;;;;;16.38;99.63;98627.71;105758;1261;69699;-75
2023/06/29 06:41:26;;;;;;;4.50;4.10;;;;;;;16.21;100.00;98628.51;105691;1256;71196;-76
2023/06/29 06:43:54;;;;;;;4.80;4.40;;;;;;;16.06;100.00;98631.46;105872;1258;59601;-75
2023/06/29 06:46:21;;;;;;;5.60;4.60;;;;;;;15.94;100.00;98632.36;105739;1258;60080;-77
2023/06/29 06:48:49;;;;;;;5.50;4.50;;;;;;;15.85;100.00;98632.89;105807;1260;71893;-77
2023/06/29 06:51:17;;;;;;;4.90;4.40;;;;;;;15.81;100.00;98630.20;106285;1259;69063;-80
2023/06/29 06:53:44;;;;;;;5.00;4.60;;;;;;;15.84;100.00;98629.16;105897;1260;71320;-77
2023/06/29 06:56:12;;;;;;;5.50;4.70;;;;;;;15.92;100.00;98628.72;105835;1254;61781;-75
2023/06/29 06:58:40;;;;;;;5.80;4.60;;;;;;;15.99;100.00;98628.52;106647;1254;59731;-75
2023/06/29 07:01:08;;;;;;;5.70;5.10;;;;;;;16.03;100.00;98636.65;108325;1254;75108;-77
2023/06/29 07:03:37;;;;;;;5.50;4.80;;;;;;;16.06;100.00;98635.98;108481;1256;68780;-75
2023/06/29 07:06:04;;;;;;;4.90;4.50;;;;;;;16.11;100.00;98635.61;106095;1253;71155;-77
2023/06/29 07:08:34;;;;;;;5.90;5.20;;;;;;;16.18;100.00;98633.48;105732;1261;60499;-77
2023/06/29 07:11:05;;;;;;;5.10;4.70;;;;;;;16.25;100.00;98634.92;105841;1256;62211;-75
2023/06/29 07:13:33;;;;;;;5.70;5.10;;;;;;;16.32;100.00;98638.79;105904;1254;72038;-73
2023/06/29 07:16:01;;;;;;;6.00;4.00;;;;;;;16.37;100.00;98633.38;105762;1256;70867;-74
2023/06/29 07:18:29;;;;;;;5.30;4.80;;;;;;;16.43;100.00;98632.88;106005;1256;72508;-80
2023/06/29 07:20:57;;;;;;;5.90;5.30;;;;;;;16.53;100.00;98634.33;106157;1254;62793;-77
2023/06/29 07:23:27;;;;;;;6.10;5.50;;;;;;;16.63;100.00;98635.10;105717;1256;60851;-77
2023/06/29 07:25:58;;;;;;;5.10;4.70;;;;;;;16.75;100.00;98639.01;105840;1261;71628;-77
2023/06/29 07:28:25;;;;;;;5.40;4.60;;;;;;;16.86;100.00;98639.42;106281;1258;68866;-75
2023/06/29 07:30:52;;;;;;;5.70;4.80;;;;;;;16.93;99.50;98644.30;106434;1261;72507;-79
2023/06/29 07:33:20;;;;;;;9.20;5.60;;;;;;;16.99;99.41;98641.47;108424;1256;61725;-74
2023/06/29 07:35:48;;;;;;;5.40;4.90;;;;;;;17.03;99.68;98642.52;106724;1255;59724;-76
2023/06/29 07:38:15;;;;;;;6.20;5.00;;;;;;;17.07;99.58;98639.98;106259;1254;73037;-75
2023/06/29 07:40:43;;;;;;;6.70;6.00;;;;;;;17.12;99.35;98643.13;106215;1259;68746;-75
2023/06/29 07:43:15;;;;;;;7.20;5.50;;;;;;;17.15;99.14;98641.61;106423;1256;72499;-77
2023/06/29 07:45:42;;;;;;;5.30;4.80;;;;;;;17.16;99.50;98646.20;106404;1255;61699;-75
2023/06/29 07:48:10;;;;;;;5.20;4.40;;;;;;;17.16;99.25;98651.04;106226;1254;59960;-80
2023/06/29 07:50:38;;;;;;;4.40;4.00;;;;;;;17.16;98.45;98649.96;106342;1257;71784;-77
2023/06/29 07:53:06;;;;;;;4.50;4.10;;;;;;;17.16;98.51;98653.40;106473;1258;68185;-77
2023/06/29 07:55:34;;;;;;;4.50;4.10;;;;;;;17.17;98.80;98653.79;105807;1256;72613;-75
2023/06/29 07:58:01;;;;;;;4.80;4.40;;;;;;;17.15;99.00;98654.52;106083;1256;61935;-80
2023/06/29 08:00:32;;;;;;;7.10;4.20;;;;;;;17.12;98.99;98654.45;106699;1257;59765;-77
2023/06/29 08:02:59;;;;;;;5.40;4.10;;;;;;;17.12;98.75;98656.66;107836;1255;71900;-76
2023/06/29 08:05:27;;;;;;;4.60;4.20;;;;;;;17.12;98.28;98658.05;106867;1255;68822;-74
2023/06/29 08:07:57;;;;;;;4.30;3.90;;;;;;;17.10;98.06;98658.33;105903;1257;74024;-74
2023/06/29 08:10:25;;;;;;;6.20;4.00;;;;;;;17.09;98.35;98656.83;105902;1256;63801;-73
2023/06/29 08:12:53;;;;;;;5.10;4.60;;;;;;;17.13;98.68;98657.09;105531;1257;59743;-76
2023/06/29 08:15:21;;;;;;;4.90;4.40;;;;;;;17.16;98.37;98660.26;105861;1258;73227;-73
2023/06/29 08:17:48;;;;;;;4.80;3.60;;;;;;;17.16;98.81;98657.96;105834;1267;68768;-74
2023/06/29 08:20:16;;;;;;;5.90;4.20;;;;;;;17.21;98.86;98657.80;105832;1256;72423;-73
2023/06/29 08:22:43;;;;;;;4.70;4.30;;;;;;;17.27;98.52;98660.44;105433;1255;61705;-73
2023/06/29 08:25:11;;;;;;;5.00;4.00;;;;;;;17.37;98.56;98659.35;105719;1261;60111;-74
2023/06/29 08:27:39;;;;;;;4.40;4.00;;;;;;;17.51;98.56;98660.42;105885;1258;71777;-73
2023/06/29 08:30:08;;;;;;;4.40;4.00;;;;;;;17.70;98.25;98661.58;106182;1256;70174;-73
2023/06/29 08:32:35;;;;;;;5.90;4.30;;;;;;;17.87;97.58;98665.35;106756;1257;72990;-74
2023/06/29 08:35:03;;;;;;;6.60;4.60;;;;;;;17.98;96.13;98664.26;106802;1259;60619;-75
2023/06/29 08:37:31;;;;;;;5.10;4.20;;;;;;;18.05;94.46;98658.83;105811;1256;59614;-75
2023/06/29 08:39:59;;;;;;;6.00;4.80;;;;;;;18.12;94.07;98652.97;105687;1254;74967;-73
2023/06/29 08:42:26;;;;;;;6.50;4.70;;;;;;;18.16;94.23;98650.14;105817;1255;69662;-73
2023/06/29 08:44:54;;;;;;;4.60;4.20;;;;;;;18.14;93.27;98651.66;105370;1260;74882;-74
2023/06/29 08:47:22;;;;;;;4.90;4.50;;;;;;;18.04;93.46;98656.09;105309;1258;60519;-72
2023/06/29 08:49:52;;;;;;;7.40;5.40;;;;;;;17.90;93.64;98663.77;105399;1256;59757;-75
2023/06/29 08:52:19;;;;;;;4.20;3.60;;;;;;;17.76;94.34;98659.05;105972;1258;72821;-72
2023/06/29 08:54:47;;;;;;;8.60;6.70;;;;;;;17.72;95.27;98655.38;105787;1260;69175;-72
2023/06/29 08:57:14;;;;;;;4.80;4.10;;;;;;;17.77;96.66;98653.52;105757;1261;73511;-74
2023/06/29 08:59:42;;;;;;;4.60;4.10;;;;;;;17.85;97.18;98652.58;106000;1259;61746;-70
2023/06/29 09:02:10;;;;;;;4.90;4.40;;;;;;;17.95;96.82;98651.52;106372;1254;60014;-73
2023/06/29 09:04:39;;;;;;;4.90;4.10;;;;;;;18.05;96.78;98647.17;106525;1258;71082;-73
2023/06/29 09:07:07;;;;;;;4.40;4.00;;;;;;;18.19;96.18;98641.73;105832;1253;70129;-73
2023/06/29 09:09:35;;;;;;;7.90;6.90;;;;;;;18.29;96.65;98638.73;105690;1257;73244;-71
2023/06/29 09:12:03;;;;;;;4.80;4.40;;;;;;;18.42;97.60;98639.20;105769;1255;61653;-74
2023/06/29 09:14:32;;;;;;;4.90;4.50;;;;;;;18.64;98.17;98637.79;105828;1254;60030;-72
2023/06/29 09:17:01;;;;;;;4.90;4.50;;;;;;;18.88;95.75;98640.52;105765;1258;73112;-74
2023/06/29 09:19:29;;;;;;;4.20;3.70;;;;;;;19.02;94.76;98648.30;105893;1260;68975;-73
2023/06/29 09:21:58;;;;;;;4.60;3.60;;;;;;;19.01;91.11;98657.10;105850;1259;71429;-72
2023/06/29 09:24:27;;;;;;;4.10;3.50;;;;;;;18.78;90.15;98658.34;105824;1259;60150;-71
2023/06/29 09:26:55;;;;;;;5.10;4.60;;;;;;;18.48;90.51;98660.20;105811;1253;59643;-74
2023/06/29 09:29:23;;;;;;;5.50;4.20;;;;;;;18.24;90.78;98657.79;106559;1254;72149;-75
2023/06/29 09:31:57;;;;;;;4.70;4.30;;;;;;;18.02;91.74;98660.67;107059;1258;68714;-73
2023/06/29 09:34:26;;;;;;;5.50;4.80;;;;;;;17.98;93.31;98659.73;107006;1253;71237;-73
2023/06/29 09:36:53;;;;;;;5.40;4.90;;;;;;;18.23;96.71;98658.84;106230;1254;60538;-74
2023/06/29 09:39:21;;;;;;;5.30;4.80;;;;;;;18.64;97.75;98653.92;105779;1253;60078;-74
2023/06/29 09:41:56;;;;;;;5.00;4.50;;;;;;;19.01;95.89;98647.23;105719;1259;73075;-74
2023/06/29 09:44:24;;;;;;;5.20;4.70;;;;;;;19.35;94.66;98648.04;105781;1256;69947;-73
2023/06/29 09:46:53;;;;;;;5.00;4.60;;;;;;;19.61;91.54;98650.08;105319;1253;71995;-73
2023/06/29 09:49:24;;;;;;;6.30;4.60;;;;;;;19.72;89.52;98650.71;105927;1260;61977;-75
2023/06/29 09:52:01;;;;;;;6.20;4.60;;;;;;;19.72;87.74;98648.73;105753;1260;60433;-75
2023/06/29 09:54:28;;;;;;;7.00;4.50;;;;;;;19.69;87.09;98650.66;105769;1260;74204;-73
2023/06/29 09:56:55;;;;;;;4.60;4.20;;;;;;;19.64;85.80;98649.80;105599;1259;67741;-73
2023/06/29 09:59:23;;;;;;;5.10;4.10;;;;;;;19.63;85.30;98651.25;106138;1258;72661;-73
2023/06/29 10:01:51;;;;;;;5.00;4.50;;;;;;;19.62;84.56;98652.47;106303;1259;60501;-74
2023/06/29 10:04:19;;;;;;;4.00;3.70;;;;;;;19.63;83.53;98648.55;106584;1254;60400;-73
2023/06/29 10:06:48;;;;;;;5.00;4.50;;;;;;;19.66;84.27;98645.08;106173;1256;72665;-74
2023/06/29 10:09:19;;;;;;;4.60;4.00;;;;;;;19.80;85.53;98642.59;105903;1258;72203;-74
2023/06/29 10:11:49;;;;;;;4.50;4.10;;;;;;;20.18;87.21;98636.50;105315;1261;74988;-71
2023/06/29 10:14:18;;;;;;;5.20;3.80;;;;;;;20.74;89.37;98628.10;105587;1259;63579;-73
2023/06/29 10:16:47;;;;;;;4.50;4.10;;;;;;;21.38;85.28;98625.30;105826;1259;60562;-73
2023/06/29 10:19:18;;;;;;;4.30;3.90;;;;;;;21.79;79.77;98622.53;105896;1259;74102;-73
2023/06/29 10:21:47;;;;;;;5.00;4.00;;;;;;;21.98;77.74;98622.55;106103;1255;70029;-73
2023/06/29 10:24:17;;;;;;;5.70;3.90;;;;;;;22.05;77.38;98623.62;105750;1258;72479;-74
2023/06/29 10:26:47;;;;;;;5.30;4.50;;;;;;;22.18;78.10;98618.31;105790;1260;62375;-75
2023/06/29 10:29:14;;;;;;;5.90;4.30;;;;;;;22.35;75.38;98621.80;105740;1259;62539;-73
2023/06/29 10:31:48;;;;;;;3.70;3.40;;;;;;;22.40;75.59;98620.50;106029;1253;73802;-73
2023/06/29 10:34:16;;;;;;;4.10;3.70;;;;;;;22.42;73.51;98617.90;108118;1255;70067;-75
2023/06/29 10:36:45;;;;;;;6.30;3.90;;;;;;;22.46;72.88;98613.94;107835;1257;71410;-74
2023/06/29 10:39:45;;;;;;;3.90;3.50;;;;;;;22.45;71.52;98613.35;106395;1255;62382;-75
2023/06/29 10:42:22;;;;;;;3.60;3.30;;;;;;;22.40;71.32;98614.55;106349;1259;60447;-75
2023/06/29 10:44:50;;;;;;;4.00;3.70;;;;;;;22.46;72.06;98610.36;106568;1253;72848;-74
2023/06/29 10:47:39;;;;;;;3.80;3.10;;;;;;;22.69;73.56;98609.33;106364;1260;70142;-75
2023/06/29 10:50:10;;;;;;;3.10;2.90;;;;;;;23.28;75.97;98605.38;107731;1258;74769;-74
2023/06/29 10:52:38;;;;;;;7.60;3.20;;;;;;;23.90;69.33;98597.69;107706;1254;60384;-76
2023/06/29 10:55:31;;;;;;;4.40;3.20;;;;;;;24.32;64.52;98590.27;107848;1254;60783;-75
2023/06/29 10:57:59;;;;;;;3.60;3.10;;;;;;;24.68;65.08;98591.38;107101;1255;72013;-74
2023/06/29 11:00:26;;;;;;;4.10;3.10;;;;;;;25.02;64.78;98585.86;106876;1258;72187;-75
2023/06/29 11:02:54;;;;;;;3.60;2.90;;;;;;;25.40;64.92;98587.08;108938;1255;72607;-76
2023/06/29 11:05:22;;;;;;;3.00;2.70;;;;;;;25.83;63.80;98587.23;109303;1254;59112;-77
2023/06/29 11:07:51;;;;;;;3.10;2.90;;;;;;;26.12;61.24;98592.45;107425;1254;60511;-73
2023/06/29 11:10:22;;;;;;;3.00;2.80;;;;;;;26.23;56.32;98594.37;106812;1260;73878;-74
2023/06/29 11:12:51;;;;;;;3.10;2.90;;;;;;;26.07;57.48;98591.86;106798;1255;70185;-77
2023/06/29 11:15:18;;;;;;;3.20;2.70;;;;;;;25.97;56.12;98594.55;106896;1254;71726;-75
2023/06/29 11:17:49;;;;;;;4.90;3.10;;;;;;;25.85;57.81;98596.66;106983;1256;60304;-74
2023/06/29 11:20:18;;;;;;;3.90;3.50;;;;;;;25.77;57.64;98598.75;106706;1254;60025;-76
2023/06/29 11:22:45;;;;;;;3.50;3.20;;;;;;;25.46;57.34;98600.96;109081;1257;73870;-77
2023/06/29 11:25:16;;;;;;;4.50;3.60;;;;;;;24.94;59.10;98617.42;109392;1254;68817;-75
2023/06/29 11:27:45;;;;;;;4.10;3.60;;;;;;;24.24;60.92;98625.98;109442;1253;71076;-77
2023/06/29 11:30:12;;;;;;;6.60;3.90;;;;;;;23.56;62.57;98638.13;109263;1254;59208;-76